createdAt,value
2023-03-04T00:01:28.900Z,88.50
2023-03-04T00:03:55.544Z,88.50
2023-03-04T00:06:22.247Z,88.30
2023-03-04T00:08:48.922Z,88.20
2023-03-04T00:11:15.696Z,88.30
2023-03-04T00:13:42.508Z,88.20
2023-03-04T00:16:09.207Z,88.30
2023-03-04T00:18:35.926Z,88.30
2023-03-04T00:21:02.637Z,88.80
2023-03-04T00:23:29.253Z,89.00
2023-03-04T00:25:58.506Z,89.30
2023-03-04T00:28:25.137Z,89.10
2023-03-04T00:30:51.917Z,88.80
2023-03-04T00:33:18.593Z,88.80
2023-03-04T00:35:45.366Z,88.90
2023-03-04T00:38:12.103Z,89.40
2023-03-04T00:40:38.807Z,89.30
2023-03-04T00:43:05.443Z,89.20
2023-03-04T00:45:32.663Z,89.10
2023-03-04T00:47:59.312Z,89.30
2023-03-04T00:50:26.129Z,89.40
2023-03-04T00:52:52.978Z,88.80
2023-03-04T00:55:19.619Z,88.30
2023-03-04T00:57:46.358Z,88.30
2023-03-04T01:00:13.661Z,88.40
2023-03-04T01:02:40.456Z,88.80
2023-03-04T01:05:08.320Z,89.10
2023-03-04T01:07:35.017Z,89.00
2023-03-04T01:10:01.825Z,88.80
2023-03-04T01:12:29.123Z,88.60
2023-03-04T01:14:55.902Z,88.60
2023-03-04T01:17:25.908Z,88.70
2023-03-04T01:19:55.304Z,88.70
2023-03-04T01:22:22.019Z,88.80
2023-03-04T01:24:48.643Z,88.80
2023-03-04T01:27:15.413Z,88.50
2023-03-04T01:29:43.710Z,88.60
2023-03-04T01:32:10.511Z,88.40
2023-03-04T01:34:37.374Z,88.20
2023-03-04T01:37:04.431Z,87.80
2023-03-04T01:39:31.088Z,87.90
2023-03-04T01:41:58.154Z,88.20
2023-03-04T01:44:24.922Z,88.40
2023-03-04T01:46:54.376Z,88.40
2023-03-04T01:49:21.656Z,88.50
2023-03-04T01:51:52.253Z,88.40
2023-03-04T01:54:19.628Z,88.30
2023-03-04T01:56:48.429Z,88.10
2023-03-04T01:59:21.384Z,88.30
2023-03-04T02:01:52.708Z,88.60
2023-03-04T02:04:22.629Z,89.00
2023-03-04T02:06:50.623Z,89.00
2023-03-04T02:09:18.227Z,88.80
2023-03-04T02:11:46.961Z,89.00
2023-03-04T02:14:15.179Z,89.00
2023-03-04T02:16:42.316Z,89.00
2023-03-04T02:19:51.002Z,89.20
2023-03-04T02:22:17.769Z,89.30
2023-03-04T02:24:50.298Z,89.10
2023-03-04T02:27:17.236Z,89.00
2023-03-04T02:29:43.963Z,89.20
2023-03-04T02:32:13.498Z,89.20
2023-03-04T02:34:48.439Z,88.70
2023-03-04T02:37:15.793Z,88.80
2023-03-04T02:39:45.571Z,89.00
2023-03-04T02:42:12.733Z,89.30
2023-03-04T02:44:47.518Z,89.20
2023-03-04T02:47:18.211Z,89.20
2023-03-04T02:49:45.024Z,89.00
2023-03-04T02:52:19.448Z,88.70
2023-03-04T02:54:46.502Z,88.70
2023-03-04T02:57:14.830Z,88.80
2023-03-04T02:59:44.241Z,89.00
2023-03-04T03:02:15.848Z,89.30
2023-03-04T03:04:42.687Z,89.20
2023-03-04T03:07:13.762Z,89.10
2023-03-04T03:09:41.468Z,89.30
2023-03-04T03:12:08.147Z,89.30
2023-03-04T03:14:34.915Z,89.50
2023-03-04T03:17:03.741Z,89.50
2023-03-04T03:19:31.620Z,90.00
2023-03-04T03:21:59.514Z,89.80
2023-03-04T03:24:26.973Z,89.70
2023-03-04T03:26:53.652Z,89.50
2023-03-04T03:29:20.320Z,89.20
2023-03-04T03:31:47.021Z,88.90
2023-03-04T03:34:13.798Z,89.20
2023-03-04T03:36:41.584Z,89.70
2023-03-04T03:39:08.333Z,90.20
2023-03-04T03:41:35.070Z,90.60
2023-03-04T03:44:01.823Z,90.80
2023-03-04T03:46:29.771Z,91.10
2023-03-04T03:48:56.447Z,91.30
2023-03-04T03:51:23.155Z,91.20
2023-03-04T03:53:49.837Z,90.80
2023-03-04T03:56:16.498Z,90.90
2023-03-04T03:58:43.179Z,91.00
2023-03-04T04:01:09.952Z,91.20
2023-03-04T04:03:36.724Z,91.60
2023-03-04T04:06:03.567Z,92.10
2023-03-04T04:08:30.259Z,91.90
2023-03-04T04:10:56.950Z,91.70
2023-03-04T04:13:23.615Z,91.70
2023-03-04T04:15:52.168Z,91.80
2023-03-04T04:18:19.192Z,91.30
2023-03-04T04:20:47.031Z,91.10
2023-03-04T04:23:13.728Z,90.90
2023-03-04T04:25:40.356Z,90.40
2023-03-04T04:28:07.326Z,90.20
2023-03-04T04:30:34.466Z,90.10
2023-03-04T04:33:01.871Z,89.70
2023-03-04T04:35:28.851Z,89.70
2023-03-04T04:37:55.576Z,90.00
2023-03-04T04:40:22.231Z,89.80
2023-03-04T04:42:48.876Z,89.90
2023-03-04T04:45:15.659Z,89.80
2023-03-04T04:47:42.397Z,89.60
2023-03-04T04:50:09.732Z,89.80
2023-03-04T04:52:36.417Z,90.30
2023-03-04T04:55:03.919Z,90.90
2023-03-04T04:57:30.551Z,91.30
2023-03-04T04:59:57.309Z,91.30
2023-03-04T05:02:23.963Z,91.30
2023-03-04T05:04:50.589Z,90.50
2023-03-04T05:07:17.283Z,90.80
2023-03-04T05:09:44.010Z,91.40
2023-03-04T05:12:10.643Z,91.20
2023-03-04T05:14:37.536Z,90.70
2023-03-04T05:17:04.316Z,90.70
2023-03-04T05:19:30.954Z,90.70
2023-03-04T05:21:57.597Z,90.80
2023-03-04T05:24:24.504Z,90.70
2023-03-04T05:26:51.138Z,91.10
2023-03-04T05:29:17.808Z,91.40
2023-03-04T05:31:44.519Z,91.30
2023-03-04T05:34:11.161Z,91.40
2023-03-04T05:36:37.867Z,91.50
2023-03-04T05:39:04.519Z,91.40
2023-03-04T05:41:31.239Z,91.80
2023-03-04T05:43:57.951Z,91.90
2023-03-04T05:46:25.531Z,92.10
2023-03-04T05:48:53.373Z,91.90
2023-03-04T05:51:21.028Z,91.80
2023-03-04T05:53:48.260Z,92.00
2023-03-04T05:56:17.882Z,91.00
2023-03-04T05:58:45.097Z,90.80
2023-03-04T06:01:11.788Z,91.00
2023-03-04T06:03:38.586Z,91.40
2023-03-04T06:06:06.039Z,91.80
2023-03-04T06:08:32.982Z,91.60
2023-03-04T06:10:59.672Z,91.80
2023-03-04T06:13:26.468Z,91.80
2023-03-04T06:15:57.755Z,91.70
2023-03-04T06:18:26.120Z,91.70
2023-03-04T06:21:00.578Z,91.60
2023-03-04T06:23:28.057Z,91.30
2023-03-04T06:25:56.467Z,91.40
2023-03-04T06:28:23.448Z,90.80
2023-03-04T06:30:54.394Z,90.80
2023-03-04T06:33:21.905Z,90.80
2023-03-04T06:35:49.015Z,90.80
2023-03-04T06:38:15.842Z,90.80
2023-03-04T06:40:42.575Z,91.10
2023-03-04T06:43:09.338Z,91.30
2023-03-04T06:45:38.253Z,91.20
2023-03-04T06:48:05.169Z,91.10
2023-03-04T06:50:31.802Z,91.20
2023-03-04T06:52:58.481Z,91.20
2023-03-04T06:55:25.343Z,91.40
2023-03-04T06:57:52.003Z,91.30
2023-03-04T07:00:19.470Z,91.50
2023-03-04T07:02:46.163Z,91.40
2023-03-04T07:05:12.984Z,91.40
2023-03-04T07:07:39.721Z,91.70
2023-03-04T07:10:06.860Z,91.60
2023-03-04T07:12:33.522Z,91.50
2023-03-04T07:15:00.210Z,91.40
2023-03-04T07:17:26.962Z,91.40
2023-03-04T07:19:53.685Z,91.60
2023-03-04T07:22:20.321Z,91.00
2023-03-04T07:24:47.012Z,91.10
2023-03-04T07:27:13.737Z,91.70
2023-03-04T07:29:40.344Z,92.30
2023-03-04T07:32:10.620Z,92.40
2023-03-04T07:34:37.421Z,92.50
2023-03-04T07:37:04.513Z,92.60
2023-03-04T07:39:31.410Z,92.30
2023-03-04T07:41:58.302Z,91.70
2023-03-04T07:44:24.967Z,91.50
2023-03-04T07:46:51.630Z,91.80
2023-03-04T07:49:18.284Z,91.70
2023-03-04T07:51:45.078Z,92.10
2023-03-04T07:54:11.735Z,92.20
2023-03-04T07:56:38.568Z,92.20
2023-03-04T07:59:05.289Z,92.40
2023-03-04T08:01:35.165Z,92.40
2023-03-04T08:04:02.927Z,92.20
2023-03-04T08:06:30.247Z,91.50
2023-03-04T08:08:59.601Z,91.40
2023-03-04T08:11:27.850Z,91.40
2023-03-04T08:13:54.831Z,91.20
2023-03-04T08:16:22.976Z,90.90
2023-03-04T08:18:53.842Z,90.90
2023-03-04T08:21:22.540Z,91.20
2023-03-04T08:23:49.810Z,91.50
2023-03-04T08:26:19.051Z,91.40
2023-03-04T08:28:48.752Z,91.20
2023-03-04T08:31:19.653Z,91.40
2023-03-04T08:33:48.285Z,91.40
2023-03-04T08:36:16.253Z,91.40
2023-03-04T08:38:43.258Z,91.00
2023-03-04T08:41:10.173Z,90.60
2023-03-04T08:43:36.899Z,90.40
2023-03-04T08:46:04.489Z,90.60
2023-03-04T08:48:36.843Z,90.70
2023-03-04T08:51:13.605Z,90.40
2023-03-04T08:53:40.842Z,90.30
2023-03-04T08:56:08.318Z,90.50
2023-03-04T08:58:35.338Z,90.20
2023-03-04T09:01:03.783Z,90.00
2023-03-04T09:03:34.243Z,90.00
2023-03-04T09:06:15.459Z,90.60
2023-03-04T09:08:42.639Z,90.80
2023-03-04T09:11:10.035Z,90.70
2023-03-04T09:13:37.048Z,90.70
2023-03-04T09:16:10.153Z,90.30
2023-03-04T09:18:36.896Z,90.50
2023-03-04T09:21:03.828Z,90.90
2023-03-04T09:23:30.808Z,91.00
2023-03-04T09:25:57.492Z,91.10
2023-03-04T09:28:24.221Z,90.80
2023-03-04T09:30:50.959Z,90.00
2023-03-04T09:33:18.002Z,89.90
2023-03-04T09:35:45.190Z,90.10
2023-03-04T09:38:15.018Z,89.80
2023-03-04T09:40:47.997Z,89.70
2023-03-04T09:43:27.455Z,89.70
2023-03-04T09:46:00.844Z,89.30
2023-03-04T09:48:35.441Z,89.90
2023-03-04T09:51:25.451Z,90.00
2023-03-04T09:53:58.695Z,89.80
2023-03-04T09:56:26.088Z,89.60
2023-03-04T09:59:17.160Z,89.90
2023-03-04T10:01:50.570Z,90.00
2023-03-04T10:04:39.991Z,90.00
2023-03-04T10:07:34.321Z,89.60
2023-03-04T10:10:10.016Z,89.50
2023-03-04T10:12:51.546Z,89.20
2023-03-04T10:15:31.955Z,89.20
2023-03-04T10:18:37.742Z,89.30
2023-03-04T10:21:24.082Z,89.30
2023-03-04T10:23:50.958Z,89.10
2023-03-04T10:26:20.874Z,89.40
2023-03-04T10:28:48.302Z,89.40
2023-03-04T10:31:35.290Z,89.10
2023-03-04T10:34:05.699Z,89.00
2023-03-04T10:36:32.344Z,89.20
2023-03-04T10:39:13.708Z,88.90
2023-03-04T10:41:45.904Z,89.10
2023-03-04T10:44:37.141Z,89.20
2023-03-04T10:47:11.217Z,88.90
2023-03-04T10:49:53.379Z,89.40
2023-03-04T10:52:38.292Z,89.20
2023-03-04T10:55:17.394Z,89.10
2023-03-04T10:57:48.243Z,88.80
2023-03-04T11:00:17.891Z,88.70
2023-03-04T11:02:48.934Z,88.60
2023-03-04T11:05:15.809Z,88.60
2023-03-04T11:07:54.979Z,88.60
2023-03-04T11:10:29.942Z,88.70
2023-03-04T11:13:00.700Z,88.40
2023-03-04T11:15:31.047Z,88.10
2023-03-04T11:18:02.795Z,87.60
2023-03-04T11:20:46.595Z,87.20
2023-03-04T11:23:17.821Z,86.60
2023-03-04T11:25:49.656Z,86.10
2023-03-04T11:28:22.955Z,86.10
2023-03-04T11:30:56.576Z,85.90
2023-03-04T11:33:56.619Z,85.40
2023-03-04T11:36:31.528Z,85.40
2023-03-04T11:38:58.811Z,85.00
2023-03-04T11:41:30.596Z,84.40
2023-03-04T11:43:57.531Z,84.00
2023-03-04T11:46:53.272Z,83.90
2023-03-04T11:49:56.574Z,83.90
2023-03-04T11:52:26.329Z,83.70
2023-03-04T11:55:25.983Z,83.70
2023-03-04T11:58:27.057Z,84.30
2023-03-04T12:01:15.896Z,83.90
2023-03-04T12:03:54.560Z,83.50
2023-03-04T12:06:43.606Z,83.00
2023-03-04T12:09:34.354Z,83.70
2023-03-04T12:12:30.582Z,84.00
2023-03-04T12:15:39.228Z,83.90
2023-03-04T12:18:21.327Z,83.50
2023-03-04T12:21:13.270Z,83.50
2023-03-04T12:23:53.862Z,83.60
2023-03-04T12:26:54.864Z,83.20
2023-03-04T12:29:21.533Z,82.80
2023-03-04T12:32:10.650Z,82.50
2023-03-04T12:34:59.019Z,82.40
2023-03-04T12:37:50.327Z,81.50
2023-03-04T12:40:30.222Z,81.00
2023-03-04T12:43:21.820Z,81.30
2023-03-04T12:46:13.364Z,80.90
2023-03-04T12:48:46.608Z,81.10
2023-03-04T12:51:20.511Z,81.00
2023-03-04T12:53:59.600Z,81.20
2023-03-04T12:56:57.378Z,81.00
2023-03-04T12:59:28.704Z,81.00
2023-03-04T13:02:37.585Z,81.20
2023-03-04T13:05:16.455Z,81.20
2023-03-04T13:07:59.673Z,81.70
2023-03-04T13:10:26.628Z,81.20
2023-03-04T13:12:59.379Z,81.10
2023-03-04T13:15:26.093Z,81.10
2023-03-04T13:18:19.074Z,81.50
2023-03-04T13:20:45.914Z,81.50
2023-03-04T13:23:26.996Z,81.40
2023-03-04T13:25:56.722Z,81.60
2023-03-04T13:28:34.689Z,81.70
2023-03-04T13:31:10.352Z,81.60
2023-03-04T13:33:37.391Z,81.70
2023-03-04T13:36:08.782Z,81.50
2023-03-04T13:38:38.610Z,81.20
2023-03-04T13:41:07.462Z,82.00
2023-03-04T13:43:48.441Z,82.20
2023-03-04T13:46:21.559Z,82.30
2023-03-04T13:48:51.445Z,82.20
2023-03-04T13:51:30.601Z,82.40
2023-03-04T13:54:00.756Z,82.10
2023-03-04T13:56:37.422Z,82.10
2023-03-04T13:59:07.587Z,82.10
2023-03-04T14:01:43.202Z,82.00
2023-03-04T14:04:28.822Z,82.00
2023-03-04T14:06:58.512Z,81.30
2023-03-04T14:09:31.565Z,81.60
2023-03-04T14:12:05.297Z,81.90
2023-03-04T14:14:44.314Z,82.20
2023-03-04T14:17:20.230Z,82.30
2023-03-04T14:19:48.565Z,82.60
2023-03-04T14:22:21.356Z,82.60
2023-03-04T14:25:13.713Z,82.60
2023-03-04T14:27:40.838Z,82.70
2023-03-04T14:30:41.600Z,82.50
2023-03-04T14:33:15.136Z,82.60
2023-03-04T14:35:51.035Z,82.90
2023-03-04T14:38:40.568Z,82.80
2023-03-04T14:41:11.358Z,82.90
2023-03-04T14:44:17.922Z,83.20
2023-03-04T14:47:00.889Z,82.80
2023-03-04T14:49:36.905Z,82.40
2023-03-04T14:52:03.885Z,82.50
2023-03-04T14:54:35.936Z,82.60
2023-03-04T14:57:26.402Z,82.30
2023-03-04T14:59:54.225Z,82.20
2023-03-04T15:02:33.577Z,82.40
2023-03-04T15:05:16.537Z,82.30
2023-03-04T15:07:49.724Z,82.20
2023-03-04T15:10:23.153Z,82.30
2023-03-04T15:12:55.920Z,81.90
2023-03-04T15:15:48.683Z,81.70
2023-03-04T15:18:17.162Z,81.80
2023-03-04T15:21:00.056Z,81.90
2023-03-04T15:23:29.091Z,82.20
2023-03-04T15:26:01.789Z,82.00
2023-03-04T15:28:37.632Z,82.00
2023-03-04T15:31:05.771Z,82.20
2023-03-04T15:33:33.842Z,82.10
2023-03-04T15:36:02.386Z,82.10
2023-03-04T15:38:29.997Z,82.30
2023-03-04T15:40:59.417Z,81.90
2023-03-04T15:43:26.687Z,82.00
2023-03-04T15:45:53.924Z,82.00
2023-03-04T15:48:21.057Z,82.10
2023-03-04T15:50:55.805Z,82.00
2023-03-04T15:53:37.743Z,81.80
2023-03-04T15:56:07.888Z,82.10
2023-03-04T15:58:35.475Z,82.10
2023-03-04T16:01:02.693Z,82.50
2023-03-04T16:03:29.616Z,83.00
2023-03-04T16:05:57.186Z,83.00
2023-03-04T16:08:25.199Z,83.00
2023-03-04T16:10:54.153Z,82.40
2023-03-04T16:13:23.835Z,82.50
2023-03-04T16:15:50.902Z,82.10
2023-03-04T16:18:17.861Z,82.00
2023-03-04T16:20:47.758Z,82.30
2023-03-04T16:23:18.901Z,82.30
2023-03-04T16:25:48.244Z,82.10
2023-03-04T16:28:15.138Z,81.70
2023-03-04T16:30:42.244Z,81.80
2023-03-04T16:33:11.230Z,81.90
2023-03-04T16:35:39.486Z,81.90
2023-03-04T16:38:25.866Z,81.90
2023-03-04T16:40:53.223Z,81.90
2023-03-04T16:43:20.057Z,81.80
2023-03-04T16:45:48.379Z,82.00
2023-03-04T16:48:16.271Z,81.90
2023-03-04T16:50:44.165Z,81.70
2023-03-04T16:53:38.141Z,82.10
2023-03-04T16:56:14.308Z,82.20
2023-03-04T16:58:42.328Z,81.90
2023-03-04T17:01:21.536Z,82.00
2023-03-04T17:03:48.328Z,82.20
2023-03-04T17:16:44.204Z,82.30
2023-03-04T17:19:10.896Z,82.50
2023-03-04T17:21:37.599Z,82.60
2023-03-04T17:24:11.056Z,82.80
2023-03-04T17:26:39.699Z,83.10
2023-03-04T17:29:06.516Z,83.20
2023-03-04T17:31:33.275Z,83.60
2023-03-04T17:34:00.031Z,83.80
2023-03-04T17:36:26.722Z,83.80
2023-03-04T17:38:53.520Z,83.90
2023-03-04T17:41:20.791Z,83.80
2023-03-04T17:43:51.273Z,84.00
2023-03-04T17:46:20.246Z,84.20
2023-03-04T17:48:46.935Z,84.30
2023-03-04T17:51:13.720Z,84.60
2023-03-04T17:53:40.924Z,84.80
2023-03-04T17:56:11.182Z,84.70
2023-03-04T17:58:38.322Z,84.50
2023-03-04T18:01:11.439Z,84.70
2023-03-04T18:03:38.102Z,84.70
2023-03-04T18:06:05.046Z,84.90
2023-03-04T18:08:31.704Z,84.80
2023-03-04T18:10:58.390Z,84.80
2023-03-04T18:13:25.053Z,84.80
2023-03-04T18:15:51.894Z,85.00
2023-03-04T18:18:18.665Z,85.10
2023-03-04T18:20:45.329Z,84.90
2023-03-04T18:23:12.378Z,84.60
2023-03-04T18:25:39.860Z,84.80
2023-03-04T18:28:06.601Z,84.80
2023-03-04T18:30:33.317Z,84.90
2023-03-04T18:33:01.967Z,84.90
2023-03-04T18:35:29.113Z,85.00
2023-03-04T18:37:55.825Z,85.00
2023-03-04T18:40:22.857Z,85.20
2023-03-04T18:42:50.560Z,85.30
2023-03-04T18:45:17.526Z,85.30
2023-03-04T18:47:48.399Z,85.40
2023-03-04T18:50:15.577Z,85.60
2023-03-04T18:52:42.718Z,85.40
2023-03-04T18:55:12.823Z,85.40
2023-03-04T18:57:42.510Z,85.60
2023-03-04T19:00:13.189Z,85.90
2023-03-04T19:02:52.468Z,85.90
2023-03-04T19:05:25.102Z,85.60
2023-03-04T19:07:53.693Z,85.30
2023-03-04T19:10:20.900Z,85.30
2023-03-04T19:12:47.776Z,85.60
2023-03-04T19:15:15.019Z,85.80
2023-03-04T19:17:45.250Z,85.90
2023-03-04T19:20:13.876Z,86.10
2023-03-04T19:22:40.705Z,86.10
2023-03-04T19:25:08.100Z,86.00
2023-03-04T19:27:35.033Z,86.00
2023-03-04T19:30:05.108Z,86.10
2023-03-04T19:32:31.873Z,86.30
2023-03-04T19:34:58.554Z,86.10
2023-03-04T19:37:25.328Z,86.10
2023-03-04T19:39:54.306Z,86.40
2023-03-04T19:42:21.489Z,86.60
2023-03-04T19:44:48.439Z,86.80
2023-03-04T19:47:15.105Z,87.10
2023-03-04T19:49:41.824Z,87.10
2023-03-04T19:52:08.577Z,87.10
2023-03-04T19:54:35.360Z,86.80
2023-03-04T19:57:02.020Z,86.80
2023-03-04T19:59:28.704Z,86.70
2023-03-04T20:01:55.404Z,86.50
2023-03-04T20:04:22.285Z,86.90
2023-03-04T20:06:50.885Z,87.00
2023-03-04T20:09:19.366Z,87.10
2023-03-04T20:11:59.676Z,87.50
2023-03-04T20:14:27.566Z,87.20
2023-03-04T20:16:55.103Z,87.40
2023-03-04T20:19:21.780Z,87.50
2023-03-04T20:21:48.437Z,87.20
2023-03-04T20:24:15.186Z,87.20
2023-03-04T20:26:41.940Z,87.00
2023-03-04T20:29:08.684Z,86.80
2023-03-04T20:31:38.997Z,86.90
2023-03-04T20:34:07.571Z,86.80
2023-03-04T20:36:34.802Z,86.70
2023-03-04T20:39:02.863Z,86.60
2023-03-04T20:41:32.877Z,86.50
2023-03-04T20:43:59.614Z,86.60
2023-03-04T20:46:39.129Z,86.30
2023-03-04T20:49:08.983Z,86.90
2023-03-04T20:51:36.223Z,87.00
2023-03-04T20:54:04.164Z,87.10
2023-03-04T20:56:31.830Z,87.30
2023-03-04T20:59:00.844Z,87.30
2023-03-04T21:01:27.780Z,87.30
2023-03-04T21:03:54.519Z,87.20
2023-03-04T21:06:21.320Z,87.10
2023-03-04T21:08:48.397Z,87.30
2023-03-04T21:11:16.225Z,87.30
2023-03-04T21:13:43.669Z,87.50
2023-03-04T21:16:14.858Z,87.30
2023-03-04T21:18:42.618Z,86.70
2023-03-04T21:21:11.336Z,86.70
2023-03-04T21:23:38.807Z,86.60
2023-03-04T21:26:06.256Z,86.80
2023-03-04T21:28:33.410Z,87.20
2023-03-04T21:31:00.748Z,87.00
2023-03-04T21:33:34.240Z,87.00
2023-03-04T21:36:01.025Z,86.90
2023-03-04T21:38:27.839Z,87.20
2023-03-04T21:40:54.512Z,87.50
2023-03-04T21:43:23.328Z,87.80
2023-03-04T21:45:59.480Z,87.80
2023-03-04T21:48:26.342Z,87.80
2023-03-04T21:50:54.237Z,87.90
2023-03-04T21:53:23.485Z,87.60
2023-03-04T21:55:53.049Z,87.90
2023-03-04T21:58:20.599Z,87.60
2023-03-04T22:00:49.668Z,87.70
2023-03-04T22:03:16.538Z,88.00
2023-03-04T22:05:44.961Z,87.90
2023-03-04T22:08:12.940Z,87.30
2023-03-04T22:10:44.533Z,87.30
2023-03-04T22:13:13.364Z,88.00
2023-03-04T22:15:42.751Z,88.40
2023-03-04T22:18:12.196Z,87.90
2023-03-04T22:20:42.029Z,87.50
2023-03-04T22:23:10.073Z,88.00
2023-03-04T22:25:39.152Z,88.20
2023-03-04T22:28:06.972Z,88.10
2023-03-04T22:30:35.068Z,88.30
2023-03-04T22:33:02.150Z,88.50
2023-03-04T22:35:28.960Z,88.60
2023-03-04T22:37:55.686Z,88.70
2023-03-04T22:40:22.461Z,88.90
2023-03-04T22:42:49.578Z,89.50
2023-03-04T22:45:18.009Z,89.70
2023-03-04T22:47:50.241Z,89.30
2023-03-04T22:50:17.593Z,90.00
2023-03-04T22:52:44.910Z,90.00
2023-03-04T22:55:12.810Z,90.30
2023-03-04T22:57:39.560Z,90.50
2023-03-04T23:00:27.499Z,91.20
2023-03-04T23:02:54.901Z,91.70
2023-03-04T23:05:22.032Z,91.90
2023-03-04T23:07:50.067Z,91.60
2023-03-04T23:10:21.062Z,91.70
2023-03-04T23:12:48.512Z,91.60
2023-03-04T23:15:16.322Z,91.40
2023-03-04T23:17:43.468Z,91.50
2023-03-04T23:20:17.569Z,91.50
2023-03-04T23:22:45.635Z,91.60
2023-03-04T23:25:13.109Z,91.70
2023-03-04T23:27:40.944Z,92.60
2023-03-04T23:30:12.124Z,92.80
2023-03-04T23:32:39.117Z,93.10
2023-03-04T23:35:06.188Z,93.70
2023-03-04T23:37:32.948Z,93.50
2023-03-04T23:39:59.628Z,93.50
2023-03-04T23:42:26.356Z,93.60
2023-03-04T23:44:53.065Z,93.70
2023-03-04T23:47:19.768Z,93.10
2023-03-04T23:49:46.467Z,93.00
2023-03-04T23:52:13.238Z,93.50
2023-03-04T23:54:39.865Z,93.70
2023-03-04T23:57:06.639Z,93.60
2023-03-04T23:59:33.269Z,93.20
